Time;durP1;ratioP1;P1;durP2;ratioP2;P2;SDS_P1;SDS_P2;PMS_P1;PMS_P2;Temp;Humidity;BMP_temperature;BMP_pressure;BME280_temperature;BME280_humidity;BME280_pressure;Samples;Min_cycle;Max_cycle;Signal;HPM_P1;HPM_P2
2021/03/22 00:00:44;;;;;;;2.60;1.20;;;21.80;49.20;;;;;;4996344;28;20551;-68
2021/03/22 00:03:11;;;;;;;1.70;1.30;;;21.80;49.20;;;;;;4996399;28;20567;-66
2021/03/22 00:05:38;;;;;;;2.97;1.20;;;21.80;49.20;;;;;;4995069;28;20428;-68
2021/03/22 00:08:04;;;;;;;3.37;1.70;;;21.80;49.20;;;;;;4995908;28;20428;-67
2021/03/22 00:10:31;;;;;;;1.70;1.33;;;21.70;49.10;;;;;;4996100;28;20825;-67
2021/03/22 00:12:57;;;;;;;4.20;1.47;;;21.70;49.10;;;;;;4995512;28;20451;-68
2021/03/22 00:15:25;;;;;;;3.63;1.67;;;21.80;49.20;;;;;;4994802;28;20420;-67
2021/03/22 00:17:52;;;;;;;1.83;1.20;;;21.80;49.20;;;;;;4996030;28;20412;-67
2021/03/22 00:20:18;;;;;;;3.47;1.60;;;21.70;49.00;;;;;;4996032;28;20404;-67
2021/03/22 00:22:43;;;;;;;1.97;1.23;;;21.70;49.10;;;;;;4995787;28;20507;-67
2021/03/22 00:25:10;;;;;;;1.70;1.20;;;21.70;49.10;;;;;;4994393;28;20462;-68
2021/03/22 00:27:36;;;;;;;2.53;1.30;;;21.70;49.00;;;;;;4995947;28;20177;-67
2021/03/22 00:30:06;;;;;;;2.40;1.33;;;21.70;49.00;;;;;;4995867;28;20423;-67
2021/03/22 00:32:31;;;;;;;3.00;1.53;;;21.70;49.00;;;;;;4995720;28;20342;-67
2021/03/22 00:34:57;;;;;;;2.80;1.43;;;21.70;49.00;;;;;;4995926;28;20459;-67
2021/03/22 00:37:22;;;;;;;2.00;1.00;;;21.70;49.10;;;;;;4995688;28;20225;-67
2021/03/22 00:39:48;;;;;;;3.43;1.20;;;21.70;49.00;;;;;;4995342;28;20173;-68
2021/03/22 00:42:14;;;;;;;2.00;1.33;;;21.70;49.10;;;;;;4994193;28;20212;-68
2021/03/22 00:44:39;;;;;;;2.77;1.40;;;21.60;49.00;;;;;;4995565;28;20184;-67
2021/03/22 00:47:05;;;;;;;1.43;1.10;;;21.70;49.10;;;;;;4995558;28;20181;-68
2021/03/22 00:49:31;;;;;;;2.07;1.20;;;21.60;49.00;;;;;;4995521;28;20193;-67
2021/03/22 00:51:57;;;;;;;2.60;1.50;;;21.60;49.00;;;;;;4995558;28;20455;-67
2021/03/22 00:54:22;;;;;;;2.63;1.33;;;21.60;49.00;;;;;;4995377;28;20205;-67
2021/03/22 00:56:48;;;;;;;1.70;1.00;;;21.60;49.00;;;;;;4995045;28;20213;-67
2021/03/22 00:59:16;;;;;;;2.23;1.20;;;21.60;49.00;;;;;;4994066;28;20228;-66
2021/03/22 01:01:41;;;;;;;1.80;1.23;;;21.60;48.90;;;;;;4994912;28;20460;-68
2021/03/22 01:04:07;;;;;;;2.00;1.20;;;21.60;48.90;;;;;;4995183;28;20415;-67
2021/03/22 01:06:32;;;;;;;1.77;1.23;;;21.60;49.00;;;;;;4995125;28;20177;-66
2021/03/22 01:08:58;;;;;;;1.83;1.20;;;21.60;49.00;;;;;;4995145;28;20181;-68
2021/03/22 01:11:23;;;;;;;2.93;1.30;;;21.60;49.00;;;;;;4995002;28;20181;-68
2021/03/22 01:13:55;;;;;;;2.30;1.37;;;21.60;49.00;;;;;;4994334;28;20255;-68
2021/03/22 01:16:25;;;;;;;1.77;1.07;;;21.60;48.90;;;;;;4995284;28;20215;-67
2021/03/22 01:18:53;;;;;;;2.10;1.60;;;21.60;48.90;;;;;;4994930;28;20443;-67
2021/03/22 01:21:47;;;;;;;1.50;1.20;;;21.60;49.00;;;;;;4995105;28;20470;-67
2021/03/22 01:24:15;;;;;;;3.03;1.50;;;21.60;48.90;;;;;;4994640;28;20435;-67
2021/03/22 01:26:41;;;;;;;2.63;1.43;;;21.50;48.90;;;;;;4995106;28;20422;-68
2021/03/22 01:29:08;;;;;;;2.03;1.13;;;21.60;49.00;;;;;;4994411;28;20432;-67
2021/03/22 01:31:34;;;;;;;2.30;1.10;;;21.60;49.00;;;;;;4994210;28;20506;-67
2021/03/22 01:33:59;;;;;;;1.97;1.47;;;21.50;48.90;;;;;;4994563;28;20710;-67
2021/03/22 01:36:28;;;;;;;2.63;1.20;;;21.50;48.90;;;;;;4994457;28;20547;-68
2021/03/22 01:38:58;;;;;;;3.30;1.47;;;21.50;48.80;;;;;;4994564;28;20520;-67
2021/03/22 01:41:48;;;;;;;2.87;1.17;;;21.50;48.90;;;;;;4994125;28;20432;-67
2021/03/22 01:44:18;;;;;;;1.93;1.20;;;21.50;48.90;;;;;;4994763;28;20623;-67
2021/03/22 01:46:49;;;;;;;1.90;1.20;;;21.50;49.50;;;;;;4993107;28;20918;-67
2021/03/22 01:49:18;;;;;;;3.53;1.50;;;21.50;48.90;;;;;;4994332;28;20436;-67
2021/03/22 01:51:45;;;;;;;3.47;1.37;;;21.50;48.90;;;;;;4994326;28;20518;-68
2021/03/22 01:54:11;;;;;;;2.37;1.40;;;21.50;48.90;;;;;;4992625;28;20982;-68
2021/03/22 01:56:54;;;;;;;2.00;1.20;;;21.50;48.90;;;;;;4993028;28;20425;-67
2021/03/22 01:59:31;;;;;;;2.23;1.13;;;21.50;48.90;;;;;;4994494;28;20404;-68
2021/03/22 02:02:01;;;;;;;3.50;1.70;;;21.50;48.90;;;;;;4994080;28;20444;-67
2021/03/22 02:04:28;;;;;;;2.33;1.30;;;21.50;48.90;;;;;;4994176;28;20404;-68
2021/03/22 02:06:54;;;;;;;2.27;1.50;;;21.50;48.90;;;;;;4994362;28;20416;-67
2021/03/22 02:09:22;;;;;;;1.77;1.20;;;21.40;48.80;;;;;;4994061;28;20503;-67
2021/03/22 02:11:48;;;;;;;2.40;1.30;;;21.50;48.90;;;;;;4993660;28;20271;-68
2021/03/22 02:14:14;;;;;;;2.10;1.33;;;21.50;48.90;;;;;;4993953;28;20883;-67
2021/03/22 02:16:58;;;;;;;2.40;1.33;;;21.50;48.90;;;;;;4992718;28;20648;-67
2021/03/22 02:19:46;;;;;;;1.73;1.43;;;21.50;48.90;;;;;;4994189;28;20173;-67
2021/03/22 02:22:44;;;;;;;2.03;1.10;;;21.40;48.80;;;;;;4993931;28;20470;-67
2021/03/22 02:25:17;;;;;;;2.27;1.40;;;21.50;48.90;;;;;;4992644;28;20420;-68
2021/03/22 02:27:51;;;;;;;1.57;1.20;;;21.40;48.80;;;;;;4993499;28;20429;-68
2021/03/22 02:30:36;;;;;;;2.57;1.73;;;21.40;48.80;;;;;;4993829;28;20388;-67
2021/03/22 02:33:39;;;;;;;1.87;1.20;;;21.50;48.90;;;;;;4993669;28;20428;-67
2021/03/22 02:36:13;;;;;;;1.97;1.23;;;21.40;48.80;;;;;;4993699;28;20418;-67
2021/03/22 02:38:57;;;;;;;2.37;1.20;;;21.40;48.90;;;;;;4993597;28;20470;-67
2021/03/22 02:41:38;;;;;;;1.70;1.30;;;21.40;48.90;;;;;;4993301;28;20412;-67
2021/03/22 02:44:35;;;;;;;3.17;1.50;;;21.40;48.90;;;;;;4993696;28;20385;-67
2021/03/22 02:47:09;;;;;;;2.60;1.30;;;21.40;48.90;;;;;;4993650;28;20435;-67
2021/03/22 02:49:38;;;;;;;3.23;1.20;;;21.40;48.90;;;;;;4997042;28;20451;-68
2021/03/22 02:52:15;;;;;;;2.30;1.03;;;21.40;48.90;;;;;;4997538;28;20431;-67
2021/03/22 02:54:53;;;;;;;3.83;1.40;;;21.40;48.90;;;;;;4997460;28;20451;-67
2021/03/22 02:57:37;;;;;;;1.80;1.17;;;21.40;48.90;;;;;;4997597;28;20416;-67
2021/03/22 03:00:08;;;;;;;3.03;1.40;;;21.50;49.50;;;;;;4997495;28;20411;-67
2021/03/22 03:02:38;;;;;;;2.43;1.27;;;21.40;48.90;;;;;;4997170;28;20610;-67
2021/03/22 03:05:17;;;;;;;2.13;1.20;;;21.50;49.00;;;;;;4997912;28;20419;-67
2021/03/22 03:07:43;;;;;;;1.77;1.07;;;21.50;48.90;;;;;;4995870;28;20423;-67
2021/03/22 03:10:11;;;;;;;2.63;1.60;;;21.40;48.90;;;;;;4997466;28;20416;-68
2021/03/22 03:12:37;;;;;;;1.93;1.30;;;21.50;48.90;;;;;;4997215;28;20443;-66
2021/03/22 03:15:06;;;;;;;1.93;1.27;;;21.50;48.90;;;;;;4997149;28;20456;-67
2021/03/22 03:17:31;;;;;;;1.50;1.10;;;21.40;48.80;;;;;;4997506;28;20173;-67
2021/03/22 03:19:57;;;;;;;2.23;1.13;;;21.50;49.00;;;;;;4997100;28;20938;-68
2021/03/22 03:22:23;;;;;;;2.00;1.20;;;21.50;49.00;;;;;;4997041;28;20668;-68
2021/03/22 03:24:49;;;;;;;1.30;0.93;;;21.40;48.90;;;;;;4996909;28;20181;-68
2021/03/22 03:27:15;;;;;;;1.50;1.20;;;21.40;48.90;;;;;;4997017;28;20546;-68
2021/03/22 03:29:42;;;;;;;2.47;1.30;;;21.50;48.90;;;;;;4997210;28;20420;-68
2021/03/22 03:32:11;;;;;;;1.60;1.07;;;21.50;48.90;;;;;;4996862;28;20523;-68
2021/03/22 03:34:37;;;;;;;2.10;1.10;;;21.50;48.90;;;;;;4996824;28;20459;-68
2021/03/22 03:37:04;;;;;;;1.60;1.17;;;21.50;48.90;;;;;;4996741;28;20550;-68
2021/03/22 03:39:30;;;;;;;1.77;1.10;;;21.40;48.80;;;;;;4997072;28;20436;-68
2021/03/22 03:41:55;;;;;;;2.00;1.10;;;21.40;48.80;;;;;;4996295;28;20513;-67
2021/03/22 03:44:21;;;;;;;2.60;1.50;;;21.40;48.80;;;;;;4996901;28;20177;-68
2021/03/22 03:46:47;;;;;;;2.30;1.27;;;21.40;48.80;;;;;;4995366;28;20558;-67
2021/03/22 03:49:12;;;;;;;3.27;1.43;;;21.40;48.70;;;;;;4996766;28;20659;-68
2021/03/22 03:51:39;;;;;;;2.80;1.47;;;21.40;48.70;;;;;;4995243;28;20201;-68
2021/03/22 03:54:06;;;;;;;3.63;1.40;;;21.40;48.70;;;;;;4996449;28;20204;-66
2021/03/22 03:56:33;;;;;;;2.73;1.20;;;21.40;48.70;;;;;;4996174;28;20439;-68
2021/03/22 03:58:58;;;;;;;1.73;1.13;;;21.40;48.70;;;;;;4996085;28;20470;-68
2021/03/22 04:01:27;;;;;;;2.07;1.13;;;21.40;48.70;;;;;;4996415;28;20892;-68
2021/03/22 04:03:54;;;;;;;1.43;1.07;;;21.40;48.80;;;;;;4996270;28;20185;-68
2021/03/22 04:06:23;;;;;;;1.93;1.17;;;21.40;48.70;;;;;;4996309;28;20774;-68
2021/03/22 04:08:55;;;;;;;1.60;1.20;;;21.40;48.70;;;;;;4996103;28;20555;-68
2021/03/22 04:11:24;;;;;;;2.60;1.47;;;21.40;48.70;;;;;;4996136;28;20400;-68
2021/03/22 04:13:51;;;;;;;1.47;1.13;;;21.30;48.70;;;;;;4996005;28;20470;-68
2021/03/22 04:16:17;;;;;;;2.07;1.10;;;21.40;48.70;;;;;;4994863;28;20428;-68
2021/03/22 04:18:43;;;;;;;1.87;1.23;;;21.40;48.70;;;;;;4996278;28;20409;-67
2021/03/22 04:21:14;;;;;;;1.73;1.20;;;21.40;48.70;;;;;;4996011;28;20413;-68
2021/03/22 04:23:41;;;;;;;3.30;1.83;;;21.30;48.60;;;;;;4994586;28;20448;-66
2021/03/22 04:26:07;;;;;;;2.80;1.03;;;21.40;48.60;;;;;;4994582;28;20443;-68
2021/03/22 04:28:34;;;;;;;2.13;1.40;;;21.30;48.60;;;;;;4995560;28;20935;-68
2021/03/22 04:31:00;;;;;;;1.97;1.40;;;21.30;48.60;;;;;;4994326;28;20954;-68
2021/03/22 04:33:26;;;;;;;2.00;1.37;;;21.30;48.60;;;;;;4995614;28;20550;-67
2021/03/22 04:35:51;;;;;;;3.90;1.67;;;21.30;48.60;;;;;;4995710;28;20492;-68
2021/03/22 04:38:18;;;;;;;1.87;1.00;;;21.30;48.60;;;;;;4996208;28;20169;-68
2021/03/22 04:40:44;;;;;;;2.27;1.17;;;21.30;48.60;;;;;;4995668;28;20674;-68
2021/03/22 04:43:09;;;;;;;2.53;1.27;;;21.30;48.50;;;;;;4995304;28;20480;-67
2021/03/22 04:45:35;;;;;;;1.60;1.30;;;21.30;48.60;;;;;;4995572;28;20177;-68
2021/03/22 04:48:01;;;;;;;2.00;1.17;;;21.30;48.50;;;;;;4995535;28;20235;-68
2021/03/22 04:50:28;;;;;;;1.43;1.17;;;21.30;49.10;;;;;;4995546;28;20335;-68
2021/03/22 04:52:54;;;;;;;2.27;1.20;;;21.30;48.60;;;;;;4994067;28;20208;-67
2021/03/22 04:55:22;;;;;;;2.63;1.33;;;21.30;48.50;;;;;;4995311;28;20467;-68
2021/03/22 04:57:48;;;;;;;1.70;1.23;;;21.30;48.50;;;;;;4995262;28;20423;-68
2021/03/22 05:00:19;;;;;;;1.70;1.40;;;21.20;48.50;;;;;;4995312;28;20785;-67
2021/03/22 05:02:45;;;;;;;2.80;1.30;;;21.30;48.50;;;;;;4993917;28;20443;-68
2021/03/22 05:05:11;;;;;;;1.90;1.60;;;21.30;48.50;;;;;;4995699;28;20908;-68
2021/03/22 05:07:37;;;;;;;2.13;1.33;;;21.30;48.50;;;;;;4994789;28;20432;-68
2021/03/22 05:10:05;;;;;;;2.47;1.30;;;21.20;48.50;;;;;;4994136;28;20962;-68
2021/03/22 05:12:30;;;;;;;2.50;1.33;;;21.30;49.10;;;;;;4992789;28;20263;-68
2021/03/22 05:14:56;;;;;;;2.80;1.37;;;21.30;48.60;;;;;;4995196;28;20456;-68
2021/03/22 05:17:21;;;;;;;2.27;1.30;;;21.20;48.50;;;;;;4993739;28;20169;-67
2021/03/22 05:19:47;;;;;;;2.20;1.20;;;21.20;48.50;;;;;;4994936;28;20272;-68
2021/03/22 05:22:12;;;;;;;2.63;1.40;;;21.20;48.50;;;;;;5009941;28;20247;-68
2021/03/22 05:24:39;;;;;;;2.10;1.53;;;21.20;48.50;;;;;;4994723;28;20192;-67
2021/03/22 05:27:05;;;;;;;2.33;1.30;;;21.20;48.50;;;;;;5009550;28;20176;-66
2021/03/22 05:29:31;;;;;;;1.90;1.27;;;21.30;48.60;;;;;;4994959;28;20474;-68
2021/03/22 05:31:56;;;;;;;2.20;1.10;;;21.20;48.50;;;;;;4993945;28;20534;-68
2021/03/22 05:34:23;;;;;;;3.57;1.37;;;21.20;49.10;;;;;;4994394;28;20228;-68
2021/03/22 05:36:49;;;;;;;2.33;1.23;;;21.20;48.60;;;;;;4994086;28;20224;-66
2021/03/22 05:39:15;;;;;;;2.20;1.00;;;21.20;48.70;;;;;;4994517;28;20404;-67
2021/03/22 05:41:55;;;;;;;1.63;1.10;;;21.20;48.70;;;;;;4994409;28;20926;-68
2021/03/22 05:44:37;;;;;;;3.03;1.30;;;21.30;48.90;;;;;;4994474;28;20404;-68
2021/03/22 05:47:08;;;;;;;2.40;1.43;;;21.30;48.90;;;;;;4993075;28;21080;-69
2021/03/22 05:49:40;;;;;;;1.97;1.10;;;21.30;49.00;;;;;;4994169;28;20855;-68
2021/03/22 05:52:21;;;;;;;2.60;1.10;;;21.20;48.90;;;;;;4993237;28;20455;-68
2021/03/22 05:55:01;;;;;;;2.27;1.00;;;21.30;49.00;;;;;;5008798;28;20538;-66
2021/03/22 05:57:52;;;;;;;3.77;1.20;;;21.30;49.00;;;;;;4993022;28;20969;-67
2021/03/22 06:00:33;;;;;;;1.93;1.27;;;21.30;49.00;;;;;;4993097;28;20416;-69
2021/03/22 06:03:40;;;;;;;2.03;1.00;;;21.30;49.00;;;;;;4993575;28;20514;-65
2021/03/22 06:06:06;;;;;;;1.53;1.10;;;21.30;49.00;;;;;;4993297;28;20518;-66
2021/03/22 06:09:02;;;;;;;1.67;1.13;;;21.30;49.10;;;;;;4993036;28;20523;-66
2021/03/22 06:11:34;;;;;;;1.70;1.00;;;21.30;49.00;;;;;;4993285;28;20185;-66
2021/03/22 06:14:21;;;;;;;1.40;0.93;;;21.30;49.00;;;;;;4992512;28;20807;-67
2021/03/22 06:16:52;;;;;;;2.47;1.40;;;21.40;49.10;;;;;;4992951;28;20923;-67
2021/03/22 06:19:18;;;;;;;1.60;1.13;;;21.40;49.60;;;;;;4994191;28;20475;-67
2021/03/22 06:21:48;;;;;;;3.80;1.27;;;21.40;49.10;;;;;;4993701;28;20424;-67
2021/03/22 06:24:27;;;;;;;2.27;1.30;;;21.40;49.10;;;;;;4993082;28;20428;-67
2021/03/22 06:27:00;;;;;;;2.20;1.10;;;21.40;49.00;;;;;;4992405;28;20473;-66
2021/03/22 06:29:36;;;;;;;3.10;1.00;;;21.40;49.00;;;;;;4993714;28;20415;-67
2021/03/22 06:32:22;;;;;;;1.77;1.17;;;21.40;49.00;;;;;;4993695;28;20438;-67
2021/03/22 06:34:58;;;;;;;3.00;1.20;;;21.40;49.00;;;;;;4993722;28;20807;-67
2021/03/22 06:37:27;;;;;;;1.37;1.00;;;21.40;49.00;;;;;;4993648;28;20879;-67
2021/03/22 06:40:08;;;;;;;1.53;0.93;;;21.40;49.00;;;;;;4993600;28;20500;-67
2021/03/22 06:42:34;;;;;;;2.13;1.10;;;21.50;49.10;;;;;;4992292;28;20451;-66
2021/03/22 06:44:59;;;;;;;1.40;1.03;;;21.40;49.10;;;;;;4992296;28;20420;-67
2021/03/22 06:47:31;;;;;;;2.00;1.13;;;21.40;49.10;;;;;;4992323;28;20188;-67
2021/03/22 06:50:25;;;;;;;1.93;1.00;;;21.40;49.10;;;;;;4993528;28;20651;-66
2021/03/22 06:52:52;;;;;;;2.00;1.00;;;21.40;49.00;;;;;;4993645;28;20443;-66
2021/03/22 06:55:32;;;;;;;1.37;1.10;;;21.40;49.10;;;;;;4993983;28;20463;-67
2021/03/22 06:57:58;;;;;;;3.17;1.10;;;21.50;49.10;;;;;;4992206;28;20416;-66
2021/03/22 07:00:29;;;;;;;2.17;1.30;;;21.40;49.10;;;;;;4993643;28;20823;-65
2021/03/22 07:02:59;;;;;;;3.00;1.37;;;21.40;49.10;;;;;;4993414;28;20919;-67
2021/03/22 07:05:27;;;;;;;1.97;1.10;;;21.50;49.20;;;;;;4993446;28;20436;-67
2021/03/22 07:07:57;;;;;;;2.10;0.90;;;21.50;49.10;;;;;;4992065;28;20420;-67
2021/03/22 07:10:39;;;;;;;2.50;1.33;;;21.50;49.10;;;;;;4993699;28;20412;-67
2021/03/22 07:13:24;;;;;;;1.70;1.07;;;21.50;49.10;;;;;;4993450;28;20450;-68
2021/03/22 07:15:52;;;;;;;2.17;1.47;;;21.50;49.10;;;;;;4993649;28;20503;-67
2021/03/22 07:18:23;;;;;;;1.93;0.90;;;21.50;49.20;;;;;;4993262;28;20419;-67
2021/03/22 07:21:05;;;;;;;1.47;0.90;;;21.50;49.20;;;;;;4993579;28;20435;-66
2021/03/22 07:23:45;;;;;;;4.30;1.10;;;21.50;49.10;;;;;;4993123;28;20440;-66
2021/03/22 07:26:38;;;;;;;2.80;1.13;;;21.50;49.10;;;;;;4993547;28;20402;-67
2021/03/22 07:29:40;;;;;;;2.40;2.10;;;21.50;49.10;;;;;;4989685;28;20430;-66
2021/03/22 07:32:49;;;;;;;3.77;1.40;;;21.60;49.70;;;;;;4991867;28;20517;-67
2021/03/22 07:35:47;;;;;;;2.57;1.40;;;21.60;49.20;;;;;;4974187;28;20476;-67
2021/03/22 07:38:16;;;;;;;2.17;1.20;;;21.50;49.10;;;;;;4975275;28;20409;-66
2021/03/22 07:40:56;;;;;;;1.97;1.20;;;21.50;49.10;;;;;;4975375;28;20497;-67
2021/03/22 07:43:52;;;;;;;2.03;1.07;;;21.60;49.20;;;;;;4975208;28;20476;-67
2021/03/22 07:46:43;;;;;;;1.60;0.90;;;21.60;49.20;;;;;;4958852;28;20825;-66
2021/03/22 07:49:36;;;;;;;1.50;1.20;;;21.60;49.20;;;;;;4975045;28;20588;-66
2021/03/22 07:52:07;;;;;;;1.50;0.90;;;21.60;49.20;;;;;;4975257;28;20429;-66
2021/03/22 07:54:49;;;;;;;1.43;1.00;;;21.60;49.20;;;;;;4975329;28;20453;-66
2021/03/22 07:57:36;;;;;;;1.57;1.13;;;21.60;49.20;;;;;;4975354;28;20405;-67
2021/03/22 08:00:07;;;;;;;1.00;0.80;;;21.60;49.20;;;;;;4975125;28;20417;-67
2021/03/22 08:02:54;;;;;;;1.60;1.10;;;21.60;49.20;;;;;;4974820;28;20433;-67
2021/03/22 08:06:03;;;;;;;1.10;0.80;;;21.60;49.20;;;;;;4980354;28;21019;-67
2021/03/22 08:08:43;;;;;;;1.40;0.90;;;21.60;49.10;;;;;;4984425;28;20911;-68
2021/03/22 08:11:26;;;;;;;1.30;0.90;;;21.60;49.20;;;;;;4996731;28;20397;-66
2021/03/22 08:14:13;;;;;;;2.20;0.90;;;21.60;49.20;;;;;;4994813;28;20506;-66
2021/03/22 08:16:56;;;;;;;1.40;0.80;;;21.60;49.20;;;;;;4996211;28;20385;-67
2021/03/22 08:19:40;;;;;;;1.20;0.97;;;21.60;49.20;;;;;;4994822;28;20412;-67
2021/03/22 08:22:19;;;;;;;1.63;1.13;;;21.60;49.20;;;;;;4996279;28;20471;-67
2021/03/22 08:25:20;;;;;;;1.77;1.30;;;21.60;49.20;;;;;;4996234;28;20506;-67
2021/03/22 08:28:17;;;;;;;1.20;0.70;;;21.60;49.20;;;;;;4996417;28;20416;-67
2021/03/22 08:31:11;;;;;;;1.60;0.90;;;21.60;49.20;;;;;;4996183;28;20778;-67
2021/03/22 08:34:12;;;;;;;1.87;0.90;;;21.60;49.20;;;;;;4995974;28;20554;-67
2021/03/22 08:37:02;;;;;;;1.30;0.70;;;21.60;49.20;;;;;;4991856;28;20785;-66
2021/03/22 08:39:42;;;;;;;1.03;0.90;;;21.60;49.20;;;;;;4995870;28;20500;-67
2021/03/22 08:42:13;;;;;;;1.77;1.00;;;21.60;49.20;;;;;;4995628;28;20515;-66
2021/03/22 08:45:03;;;;;;;1.67;1.00;;;21.60;49.20;;;;;;4995587;28;20404;-67
2021/03/22 08:47:44;;;;;;;1.50;1.00;;;21.60;49.20;;;;;;4994794;28;20404;-66
2021/03/22 08:50:25;;;;;;;1.67;0.97;;;21.60;49.20;;;;;;4995526;28;20455;-67
2021/03/22 08:53:05;;;;;;;2.33;1.10;;;21.60;49.20;;;;;;4995390;28;20430;-66
2021/03/22 08:55:40;;;;;;;1.33;0.90;;;21.60;49.20;;;;;;4994127;28;20832;-67
2021/03/22 08:58:26;;;;;;;2.93;0.90;;;21.70;49.30;;;;;;4994090;28;20491;-65
2021/03/22 09:00:55;;;;;;;1.10;0.80;;;21.60;49.20;;;;;;4995249;28;20391;-67
2021/03/22 09:03:38;;;;;;;0.90;0.73;;;21.60;49.20;;;;;;4993926;28;20447;-66
2021/03/22 09:06:05;;;;;;;0.87;0.60;;;21.70;49.30;;;;;;4995975;28;20547;-67
2021/03/22 09:08:38;;;;;;;1.37;0.90;;;21.60;49.20;;;;;;4995303;28;20409;-67
2021/03/22 09:11:25;;;;;;;1.37;1.00;;;21.70;49.20;;;;;;4995361;28;20393;-66
2021/03/22 09:13:58;;;;;;;1.90;1.00;;;21.70;49.20;;;;;;4995203;28;20543;-67
2021/03/22 09:16:24;;;;;;;2.27;1.00;;;21.70;49.30;;;;;;4995058;28;20392;-67
2021/03/22 09:19:22;;;;;;;1.20;0.73;;;21.70;49.30;;;;;;4995297;28;20466;-66
2021/03/22 09:22:10;;;;;;;1.40;0.90;;;21.70;49.20;;;;;;4995782;28;20200;-66
2021/03/22 09:24:45;;;;;;;1.50;0.90;;;21.80;49.30;;;;;;4994870;28;20416;-67
2021/03/22 09:27:13;;;;;;;1.17;0.80;;;21.80;49.30;;;;;;4993530;28;21002;-66
2021/03/22 09:30:12;;;;;;;1.20;0.80;;;21.70;49.20;;;;;;4994810;28;20411;-66
2021/03/22 09:32:38;;;;;;;2.57;1.27;;;21.70;49.20;;;;;;4994631;28;20463;-67
2021/03/22 09:35:16;;;;;;;1.50;0.90;;;21.70;49.20;;;;;;4994553;28;20489;-67
2021/03/22 09:37:54;;;;;;;1.60;0.90;;;21.70;49.20;;;;;;4995041;28;20164;-66
2021/03/22 09:40:19;;;;;;;1.47;0.90;;;21.70;49.20;;;;;;4994915;28;20385;-67
2021/03/22 09:43:04;;;;;;;1.33;0.90;;;21.70;49.20;;;;;;4994623;28;20436;-66
2021/03/22 09:45:32;;;;;;;1.93;1.00;;;21.80;49.20;;;;;;4994357;28;20181;-67
2021/03/22 09:48:16;;;;;;;1.77;0.80;;;21.80;49.20;;;;;;4994369;28;21006;-67
2021/03/22 09:50:48;;;;;;;1.00;0.70;;;21.80;49.20;;;;;;4992994;28;20506;-65
2021/03/22 09:53:27;;;;;;;1.40;1.10;;;21.80;49.70;;;;;;4992941;28;20427;-67
2021/03/22 09:55:53;;;;;;;1.10;0.80;;;21.80;49.20;;;;;;4993072;28;20440;-66
2021/03/22 09:58:33;;;;;;;1.50;0.90;;;21.80;49.20;;;;;;4994247;28;20933;-67
2021/03/22 10:01:03;;;;;;;1.53;0.87;;;21.80;49.20;;;;;;4994433;28;20592;-67
2021/03/22 10:03:31;;;;;;;1.73;0.93;;;21.80;49.20;;;;;;4994321;28;20436;-68
2021/03/22 10:06:00;;;;;;;1.10;0.80;;;21.80;49.20;;;;;;4994019;28;20412;-66
2021/03/22 10:08:31;;;;;;;1.43;0.80;;;21.70;49.20;;;;;;4994138;28;20408;-66
2021/03/22 10:11:20;;;;;;;1.30;0.83;;;21.70;49.20;;;;;;4993996;28;20483;-66
2021/03/22 10:13:48;;;;;;;1.83;0.87;;;21.80;49.30;;;;;;4993995;28;20475;-66
2021/03/22 10:16:26;;;;;;;1.57;0.93;;;21.80;49.30;;;;;;4993926;28;20504;-67
2021/03/22 10:19:05;;;;;;;1.70;1.00;;;21.80;49.30;;;;;;4994005;28;20404;-67
2021/03/22 10:21:36;;;;;;;1.00;0.70;;;21.80;49.30;;;;;;4992498;28;21046;-66
2021/03/22 10:24:14;;;;;;;1.30;0.90;;;21.80;49.30;;;;;;4992581;28;20463;-67
2021/03/22 10:26:43;;;;;;;1.63;1.00;;;21.80;49.30;;;;;;4993926;28;20522;-67
2021/03/22 10:29:14;;;;;;;2.80;1.27;;;21.70;49.20;;;;;;4992536;28;20900;-67
2021/03/22 10:31:41;;;;;;;1.00;0.70;;;21.80;49.30;;;;;;4992351;28;20555;-66
2021/03/22 10:34:20;;;;;;;1.37;1.10;;;21.80;49.30;;;;;;4993675;28;20574;-67
2021/03/22 10:36:45;;;;;;;1.30;0.90;;;21.80;49.30;;;;;;4993678;28;20393;-66
2021/03/22 10:39:33;;;;;;;1.53;1.03;;;21.80;49.30;;;;;;4993676;28;20773;-67
2021/03/22 10:42:00;;;;;;;1.70;1.00;;;21.80;49.30;;;;;;4993635;28;20659;-67
2021/03/22 10:44:30;;;;;;;2.13;0.90;;;21.80;49.30;;;;;;4992429;28;20428;-67
2021/03/22 10:47:11;;;;;;;1.50;0.90;;;21.80;49.30;;;;;;4993611;28;20474;-67
2021/03/22 10:49:36;;;;;;;1.07;0.73;;;21.80;49.30;;;;;;4992237;28;20446;-66
2021/03/22 10:52:04;;;;;;;1.10;0.90;;;21.80;49.30;;;;;;4992241;28;20994;-67
2021/03/22 10:54:44;;;;;;;2.00;1.00;;;21.80;49.30;;;;;;4993791;28;20263;-67
2021/03/22 10:57:33;;;;;;;1.97;0.90;;;21.80;49.30;;;;;;4993483;28;20411;-68
2021/03/22 11:00:07;;;;;;;1.43;1.10;;;21.80;49.30;;;;;;4993474;28;20408;-67
2021/03/22 11:02:43;;;;;;;1.40;1.03;;;21.80;49.30;;;;;;4993585;28;20419;-67
2021/03/22 11:05:13;;;;;;;1.70;0.90;;;21.80;49.30;;;;;;4992170;28;20470;-67
2021/03/22 11:07:39;;;;;;;1.13;0.90;;;21.80;49.30;;;;;;4993451;28;20491;-68
2021/03/22 11:10:19;;;;;;;0.90;0.70;;;21.80;49.30;;;;;;4995691;28;20400;-67
2021/03/22 11:12:48;;;;;;;1.30;0.90;;;21.80;49.30;;;;;;4997268;28;20427;-68
2021/03/22 11:15:20;;;;;;;1.30;1.07;;;21.80;49.30;;;;;;4997132;28;20452;-66
2021/03/22 11:17:47;;;;;;;1.10;0.80;;;21.80;49.30;;;;;;4997499;28;20404;-67
2021/03/22 11:20:15;;;;;;;2.00;1.20;;;21.80;49.30;;;;;;4997134;28;20405;-67
2021/03/22 11:22:47;;;;;;;1.97;0.80;;;21.80;49.40;;;;;;4997020;28;20435;-65
2021/03/22 11:25:31;;;;;;;1.00;0.90;;;21.80;49.30;;;;;;4997501;28;20483;-67
2021/03/22 11:28:09;;;;;;;1.33;0.80;;;21.80;49.30;;;;;;4995695;28;20420;-66
2021/03/22 11:30:39;;;;;;;1.30;0.90;;;21.80;49.30;;;;;;4995754;28;20439;-67
2021/03/22 11:33:12;;;;;;;1.00;0.70;;;21.80;49.40;;;;;;4996752;28;20431;-66
2021/03/22 11:35:38;;;;;;;1.47;0.80;;;21.80;49.30;;;;;;4995556;28;20857;-65
2021/03/22 11:38:04;;;;;;;1.00;0.70;;;21.80;49.30;;;;;;4996860;28;20408;-66
2021/03/22 11:40:43;;;;;;;1.87;0.70;;;21.80;49.30;;;;;;4996716;28;20919;-66
2021/03/22 11:43:31;;;;;;;1.40;1.00;;;21.90;49.40;;;;;;4996734;28;20441;-66
2021/03/22 11:46:15;;;;;;;1.93;0.83;;;21.90;49.40;;;;;;4996989;28;20420;-66
2021/03/22 11:48:41;;;;;;;1.87;0.80;;;21.90;50.00;;;;;;4996993;28;20419;-66
2021/03/22 11:51:10;;;;;;;1.37;0.80;;;21.90;49.40;;;;;;4996600;28;20945;-67
2021/03/22 11:53:57;;;;;;;1.00;0.80;;;21.90;49.40;;;;;;4996449;28;20447;-68
2021/03/22 11:56:28;;;;;;;1.20;0.83;;;21.90;49.40;;;;;;4995288;28;20853;-67
2021/03/22 11:59:19;;;;;;;1.50;0.90;;;21.90;49.50;;;;;;4996465;28;20888;-67
2021/03/22 12:02:13;;;;;;;1.40;0.80;;;21.90;49.50;;;;;;4996675;28;20424;-67
2021/03/22 12:04:49;;;;;;;1.10;0.80;;;21.90;49.50;;;;;;4996641;28;20415;-67
2021/03/22 12:07:31;;;;;;;2.20;0.70;;;21.90;49.80;;;;;;4996594;28;20906;-68
2021/03/22 12:09:56;;;;;;;1.43;0.80;;;21.90;49.50;;;;;;4996801;28;20399;-66
2021/03/22 12:12:22;;;;;;;2.00;0.90;;;21.90;49.60;;;;;;4996096;28;20432;-67
2021/03/22 12:14:48;;;;;;;2.10;0.83;;;22.00;49.60;;;;;;4996085;28;20233;-67
2021/03/22 12:17:24;;;;;;;1.30;0.90;;;22.00;49.60;;;;;;4996027;28;20173;-67
2021/03/22 12:19:49;;;;;;;1.23;0.93;;;22.00;49.60;;;;;;4994609;28;20568;-67
2021/03/22 12:22:17;;;;;;;1.50;0.80;;;22.00;49.60;;;;;;4996041;28;20428;-67
2021/03/22 12:24:43;;;;;;;1.20;0.80;;;22.00;49.60;;;;;;4995970;28;20532;-67
2021/03/22 12:27:11;;;;;;;1.00;0.90;;;22.00;49.60;;;;;;4995902;28;20412;-67
2021/03/22 12:29:36;;;;;;;1.73;0.80;;;22.10;49.70;;;;;;4994652;28;20232;-67
2021/03/22 12:32:03;;;;;;;1.30;0.80;;;22.00;49.60;;;;;;4994522;28;20441;-68
2021/03/22 12:34:28;;;;;;;1.00;0.80;;;22.10;49.60;;;;;;4995691;28;20817;-66
2021/03/22 12:36:54;;;;;;;1.33;0.80;;;22.10;49.60;;;;;;4995735;28;20405;-68
2021/03/22 12:39:24;;;;;;;1.50;0.83;;;22.10;49.60;;;;;;4995749;28;20201;-67
2021/03/22 12:41:56;;;;;;;1.30;0.70;;;22.10;49.60;;;;;;4995586;28;20189;-66
2021/03/22 12:44:22;;;;;;;1.33;0.73;;;22.00;49.50;;;;;;4996210;28;20397;-67
2021/03/22 12:46:48;;;;;;;1.40;0.83;;;22.10;49.60;;;;;;4995550;28;20609;-67
2021/03/22 12:49:17;;;;;;;1.30;0.70;;;22.10;49.50;;;;;;4995186;28;20588;-68
2021/03/22 12:51:42;;;;;;;1.27;0.77;;;22.10;49.50;;;;;;4994694;28;20498;-68
2021/03/22 12:54:09;;;;;;;1.13;0.67;;;22.10;49.50;;;;;;4994372;28;20448;-68
2021/03/22 12:56:35;;;;;;;0.97;0.70;;;22.10;49.50;;;;;;4994660;28;20181;-67
2021/03/22 12:59:01;;;;;;;1.83;1.00;;;22.10;49.50;;;;;;4994400;28;20499;-67
2021/03/22 13:01:27;;;;;;;1.77;0.80;;;22.10;49.50;;;;;;4994246;28;20173;-67
2021/03/22 13:03:52;;;;;;;1.00;0.60;;;22.10;49.50;;;;;;4993047;28;20701;-67
2021/03/22 13:06:19;;;;;;;1.13;0.90;;;22.10;49.50;;;;;;4994296;28;20305;-67
2021/03/22 13:08:45;;;;;;;1.23;0.73;;;22.10;49.60;;;;;;4992988;28;20551;-68
2021/03/22 13:11:14;;;;;;;1.37;0.83;;;22.00;49.50;;;;;;4994210;28;20412;-68
2021/03/22 13:13:40;;;;;;;1.20;0.77;;;22.10;50.10;;;;;;4994259;28;20460;-68
2021/03/22 13:16:06;;;;;;;1.30;0.87;;;22.00;49.50;;;;;;4994185;28;20903;-66
2021/03/22 13:18:34;;;;;;;1.33;0.80;;;22.00;49.50;;;;;;4994106;28;20505;-67